Aérodrome :
LOGIN :

S'inscrire | Disclaimer

   EN    FR    IT 

 










Légende :    VFR   VFR Marginal   IFR   IFR Intensif   IFR Très Intensif
Visi : 
Plafond : 
>= 8 km
>= 3000ft
5 à 8 km
1000 à 3000 ft
1500m à 5 km
500 à 1000 ft
800 à 1500m
200 à 500 ft
< 800m
< 200 ft
Symboles :   Orages  Brouillard  Fortes neiges  Fortes précipitations  Vent > 20 kt
SIGMETs :   Divers  Orages  Givrage  Turbulence  Onde Orograph.  Cendres Volcan.






- Altitude de l'aérodrome : 44 ft
- Code IATA : SOU


EGHI - Southampton

DERNIER METAR :
  • 271450Z 32015G27KT 270V360 9999 FEW032 09/M02 Q1006

METARs EXPIRÉS :
  • 271420Z 32014KT 270V350 9999 FEW032 08/M02 Q1005
  • 271350Z 31017G27KT 270V350 9999 SCT032 08/M01 Q1005
  • 271320Z 31013G26KT 270V360 9999 BKN030 08/M00 Q1004
  • 271250Z 32015G28KT 260V010 9999 BKN029 07/00 Q1003
  • 271220Z 32012KT 280V360 9999 -SHRA BKN027 06/01 Q1003

TAF TAF EGHI
Valide du 27 à 15h jusqu'au 27 à 23h UTC


271400Z 2715/2723 33015G25KT 9999 SCT030
BECMG 2715/2717 33012KT
ATIS : +44 23 8062 7103



MET'MAP, la Météo Aéronautique d'un coup d'oeil ! - Copyright ORBIFLY Décembre 2007 - Disclaimer

ORBIFLY MET'MAP TEAM :

Programmation & Développement : Alexandra Zaïnal
Sur une idée originale de : Baudouin d'Aumeries
Assistance à la programmation : Marc-Olivier Méhu
Soutien technique & logistique : Manuel Goepfert

Contact : metmap@orbifly.com




SOURCES & CREDITS :

   NOAA